Time;durP1;ratioP1;P1;durP2;ratioP2;P2;SDS_P1;SDS_P2;PMS_P1;PMS_P2;Temp;Humidity;BMP_temperature;BMP_pressure;BME280_temperature;BME280_humidity;BME280_pressure;Samples;Min_cycle;Max_cycle;Signal;HPM_P1;HPM_P2
2023/06/10 00:02:00;;;;;;;16.35;5.75;;;;;;;;;;5017397;28;20548;-68
2023/06/10 00:04:26;;;;;;;13.75;4.60;;;;;;;;;;5017581;28;20033;-69
2023/06/10 00:06:53;;;;;;;15.20;4.97;;;;;;;;;;5019527;28;20036;-68
2023/06/10 00:09:23;;;;;;;13.95;5.07;;;;;;;;;;5017286;28;20509;-69
2023/06/10 00:11:49;;;;;;;14.15;5.00;;;;;;;;;;5021122;28;20448;-69
2023/06/10 00:14:15;;;;;;;15.07;5.05;;;;;;;;;;5016168;28;20045;-69
2023/06/10 00:16:44;;;;;;;15.02;4.88;;;;;;;;;;4995146;28;20108;-69
2023/06/10 00:19:13;;;;;;;16.98;5.55;;;;;;;;;;5019390;28;20040;-69
2023/06/10 00:21:40;;;;;;;15.32;4.90;;;;;;;;;;5018444;28;20617;-71
2023/06/10 00:24:07;;;;;;;15.00;4.60;;;;;;;;;;5017074;28;20051;-69
2023/06/10 00:26:33;;;;;;;17.33;4.97;;;;;;;;;;5017890;28;20029;-69
2023/06/10 00:29:00;;;;;;;15.07;5.40;;;;;;;;;;5014805;28;20026;-69
2023/06/10 00:31:26;;;;;;;13.85;5.20;;;;;;;;;;5012672;28;20030;-69
2023/06/10 00:33:52;;;;;;;13.57;4.85;;;;;;;;;;5014373;28;20206;-69
2023/06/10 00:36:19;;;;;;;12.82;4.85;;;;;;;;;;5000709;28;20040;-69
2023/06/10 00:38:45;;;;;;;18.50;5.22;;;;;;;;;;5018429;28;20071;-69
2023/06/10 00:41:11;;;;;;;18.48;6.00;;;;;;;;;;5018569;28;20033;-68
2023/06/10 00:43:37;;;;;;;14.25;4.80;;;;;;;;;;4997119;28;20036;-69
2023/06/10 00:46:03;;;;;;;14.05;5.82;;;;;;;;;;5017506;28;20029;-69
2023/06/10 00:48:30;;;;;;;18.38;5.70;;;;;;;;;;4999581;28;20021;-68
2023/06/10 00:50:56;;;;;;;15.45;5.50;;;;;;;;;;5015519;28;20033;-68
2023/06/10 00:53:22;;;;;;;15.07;5.70;;;;;;;;;;5013979;28;20033;-69
2023/06/10 00:55:49;;;;;;;16.15;5.60;;;;;;;;;;5017292;28;20125;-69
2023/06/10 00:58:15;;;;;;;17.42;6.40;;;;;;;;;;5019576;28;20033;-69
2023/06/10 01:00:42;;;;;;;22.15;6.88;;;;;;;;;;5019049;28;20506;-69
2023/06/10 01:03:08;;;;;;;12.77;5.15;;;;;;;;;;5019705;28;20057;-68
2023/06/10 01:05:36;;;;;;;14.55;7.05;;;;;;;;;;5001704;28;20031;-68
2023/06/10 01:08:07;;;;;;;16.17;7.93;;;;;;;;;;5017958;28;20029;-69
2023/06/10 01:10:33;;;;;;;19.45;7.35;;;;;;;;;;5015443;28;20132;-69
2023/06/10 01:13:02;;;;;;;17.27;6.40;;;;;;;;;;5014500;28;20556;-68
2023/06/10 01:15:30;;;;;;;15.93;6.53;;;;;;;;;;5018071;28;20031;-69
2023/06/10 01:18:04;;;;;;;19.08;7.68;;;;;;;;;;5018296;28;20036;-68
2023/06/10 01:20:32;;;;;;;19.67;6.47;;;;;;;;;;5012667;28;20478;-69
2023/06/10 01:23:02;;;;;;;17.13;6.82;;;;;;;;;;5017229;28;20036;-68
2023/06/10 01:25:29;;;;;;;15.65;6.05;;;;;;;;;;5015291;28;20348;-68
2023/06/10 01:27:58;;;;;;;19.75;7.10;;;;;;;;;;5019154;28;20658;-69
2023/06/10 01:30:29;;;;;;;15.13;5.15;;;;;;;;;;5013095;28;20032;-69
2023/06/10 01:32:56;;;;;;;15.80;5.93;;;;;;;;;;5016990;28;20118;-68
2023/06/10 01:35:26;;;;;;;15.43;7.00;;;;;;;;;;5009770;28;20040;-69
2023/06/10 01:37:53;;;;;;;15.10;7.43;;;;;;;;;;4999691;28;20600;-68
2023/06/10 01:40:20;;;;;;;14.93;6.43;;;;;;;;;;5011910;28;20037;-69
2023/06/10 01:42:47;;;;;;;15.60;7.70;;;;;;;;;;5018754;28;20098;-68
2023/06/10 01:45:13;;;;;;;16.80;6.80;;;;;;;;;;5018266;28;20869;-68
2023/06/10 01:47:39;;;;;;;17.83;6.22;;;;;;;;;;5013661;28;21721;-68
2023/06/10 01:50:06;;;;;;;18.05;7.30;;;;;;;;;;5024375;28;20502;-68
2023/06/10 01:52:32;;;;;;;16.00;6.70;;;;;;;;;;5020410;28;20145;-68
2023/06/10 01:54:58;;;;;;;15.00;6.20;;;;;;;;;;5018882;28;20060;-68
2023/06/10 01:57:24;;;;;;;17.50;7.18;;;;;;;;;;5021761;28;20165;-68
2023/06/10 01:59:50;;;;;;;15.20;7.30;;;;;;;;;;5004003;28;20140;-68
2023/06/10 02:02:17;;;;;;;17.17;6.90;;;;;;;;;;5017793;28;20388;-69
2023/06/10 02:04:43;;;;;;;14.95;6.90;;;;;;;;;;4998177;28;20376;-68
2023/06/10 02:07:09;;;;;;;14.20;6.22;;;;;;;;;;5016080;28;20135;-68
2023/06/10 02:09:36;;;;;;;15.52;6.20;;;;;;;;;;4996700;28;20044;-69
2023/06/10 02:12:06;;;;;;;14.73;5.90;;;;;;;;;;5002601;28;20025;-69
2023/06/10 02:14:33;;;;;;;13.10;5.75;;;;;;;;;;5016365;28;20652;-69
2023/06/10 02:16:59;;;;;;;15.40;6.20;;;;;;;;;;5015183;28;20039;-69
2023/06/10 02:19:26;;;;;;;13.98;5.80;;;;;;;;;;5013605;28;20458;-69
2023/06/10 02:21:53;;;;;;;14.82;6.53;;;;;;;;;;5001473;28;20535;-69
2023/06/10 02:24:19;;;;;;;15.88;6.05;;;;;;;;;;5012138;28;20122;-68
2023/06/10 02:26:46;;;;;;;13.48;5.60;;;;;;;;;;5017776;28;20036;-69
2023/06/10 02:29:12;;;;;;;14.98;6.10;;;;;;;;;;5017354;28;20033;-69
2023/06/10 02:31:39;;;;;;;15.13;6.25;;;;;;;;;;5013634;28;21816;-69
2023/06/10 02:34:05;;;;;;;15.88;6.40;;;;;;;;;;5014622;28;20086;-69
2023/06/10 02:36:31;;;;;;;16.80;6.82;;;;;;;;;;5011912;28;20149;-69
2023/06/10 02:38:57;;;;;;;15.73;6.20;;;;;;;;;;5008950;28;20128;-69
2023/06/10 02:41:24;;;;;;;17.00;6.80;;;;;;;;;;5011726;28;20039;-69
2023/06/10 02:43:51;;;;;;;14.38;6.35;;;;;;;;;;5011537;28;20130;-69
2023/06/10 02:46:17;;;;;;;14.65;5.68;;;;;;;;;;5017618;28;20506;-69
2023/06/10 02:48:44;;;;;;;15.60;6.05;;;;;;;;;;5020799;28;20436;-69
2023/06/10 02:51:10;;;;;;;20.35;6.15;;;;;;;;;;5021410;28;20261;-69
2023/06/10 02:53:37;;;;;;;18.38;6.18;;;;;;;;;;5014861;28;20032;-69
2023/06/10 02:56:03;;;;;;;18.48;6.60;;;;;;;;;;5004370;28;20027;-69
2023/06/10 02:58:29;;;;;;;15.20;5.85;;;;;;;;;;5015776;28;20044;-69
2023/06/10 03:00:55;;;;;;;17.13;6.50;;;;;;;;;;5019957;28;20307;-69
2023/06/10 03:03:22;;;;;;;14.07;6.20;;;;;;;;;;5014938;28;20395;-71
2023/06/10 03:05:48;;;;;;;15.15;6.20;;;;;;;;;;5018136;28;21066;-69
2023/06/10 03:08:15;;;;;;;13.57;5.47;;;;;;;;;;5018557;28;20033;-69
2023/06/10 03:10:41;;;;;;;14.15;5.68;;;;;;;;;;5016463;28;20028;-71
2023/06/10 03:13:07;;;;;;;13.73;5.32;;;;;;;;;;4999847;28;20060;-69
2023/06/10 03:15:33;;;;;;;14.27;5.80;;;;;;;;;;5001601;28;20537;-69
2023/06/10 03:18:00;;;;;;;15.20;5.38;;;;;;;;;;5022542;28;20094;-69
2023/06/10 03:20:27;;;;;;;15.57;4.90;;;;;;;;;;4998916;28;20118;-69
2023/06/10 03:22:53;;;;;;;13.82;4.93;;;;;;;;;;5004652;28;20127;-70
2023/06/10 03:25:20;;;;;;;14.05;5.55;;;;;;;;;;5015408;28;20055;-70
2023/06/10 03:27:47;;;;;;;15.50;5.72;;;;;;;;;;5022907;28;20116;-70
2023/06/10 03:30:13;;;;;;;14.30;5.55;;;;;;;;;;5002107;28;20588;-70
2023/06/10 03:32:40;;;;;;;13.75;5.43;;;;;;;;;;5013625;28;20179;-70
2023/06/10 03:35:07;;;;;;;13.55;5.28;;;;;;;;;;5021214;28;20041;-69
2023/06/10 03:37:33;;;;;;;13.95;5.28;;;;;;;;;;5016021;28;20463;-70
2023/06/10 03:40:00;;;;;;;14.05;5.35;;;;;;;;;;5006320;28;20037;-70
2023/06/10 03:42:26;;;;;;;13.45;5.60;;;;;;;;;;4999116;28;20446;-70
2023/06/10 03:44:52;;;;;;;11.90;4.95;;;;;;;;;;5019430;28;20037;-70
2023/06/10 03:47:18;;;;;;;15.05;5.70;;;;;;;;;;5020889;28;20253;-70
2023/06/10 03:49:45;;;;;;;12.68;5.05;;;;;;;;;;5017540;28;20112;-69
2023/06/10 03:52:11;;;;;;;12.57;4.38;;;;;;;;;;5004701;28;20632;-69
2023/06/10 03:54:37;;;;;;;13.38;5.28;;;;;;;;;;5002385;28;20413;-69
2023/06/10 03:57:03;;;;;;;15.18;5.03;;;;;;;;;;5025374;28;20036;-69
2023/06/10 03:59:30;;;;;;;14.60;5.28;;;;;;;;;;5022833;28;20034;-69
2023/06/10 04:01:56;;;;;;;12.95;4.40;;;;;;;;;;5022543;28;20238;-69
2023/06/10 04:04:22;;;;;;;11.20;3.75;;;;;;;;;;5004605;28;20946;-70
2023/06/10 04:06:49;;;;;;;13.80;4.50;;;;;;;;;;5001769;28;20236;-70
2023/06/10 04:09:18;;;;;;;15.93;4.70;;;;;;;;;;5006385;28;20021;-70
2023/06/10 04:11:45;;;;;;;13.43;4.22;;;;;;;;;;5006335;28;20028;-71
2023/06/10 04:14:12;;;;;;;13.95;4.35;;;;;;;;;;5022555;28;20086;-68
2023/06/10 04:16:38;;;;;;;12.32;3.70;;;;;;;;;;5003712;28;20287;-69
2023/06/10 04:19:05;;;;;;;11.07;4.25;;;;;;;;;;5011816;28;20041;-70
2023/06/10 04:21:32;;;;;;;13.32;3.95;;;;;;;;;;5022782;28;20024;-70
2023/06/10 04:23:58;;;;;;;16.38;5.13;;;;;;;;;;5002722;28;20030;-70
2023/06/10 04:26:25;;;;;;;10.40;3.90;;;;;;;;;;5015509;28;20079;-71
2023/06/10 04:28:51;;;;;;;14.10;4.00;;;;;;;;;;5019041;28;20579;-70
2023/06/10 04:31:18;;;;;;;11.75;3.80;;;;;;;;;;5018797;28;20036;-70
2023/06/10 04:33:44;;;;;;;14.10;4.13;;;;;;;;;;5018996;28;20072;-70
2023/06/10 04:36:10;;;;;;;12.60;3.75;;;;;;;;;;4999508;28;20044;-70
2023/06/10 04:38:36;;;;;;;13.25;3.65;;;;;;;;;;5013574;28;20028;-70
2023/06/10 04:41:03;;;;;;;14.77;4.75;;;;;;;;;;5022442;28;20032;-70
2023/06/10 04:43:30;;;;;;;12.15;3.97;;;;;;;;;;5014378;28;20437;-70
2023/06/10 04:45:56;;;;;;;13.38;5.03;;;;;;;;;;5023766;28;20044;-70
2023/06/10 04:48:23;;;;;;;14.38;4.82;;;;;;;;;;5018339;28;20031;-70
2023/06/10 04:50:50;;;;;;;13.10;4.93;;;;;;;;;;5004370;28;20094;-70
2023/06/10 04:53:16;;;;;;;13.60;4.68;;;;;;;;;;5007082;28;20040;-70
2023/06/10 04:55:43;;;;;;;12.15;4.22;;;;;;;;;;5016641;28;20157;-70
2023/06/10 04:58:10;;;;;;;12.77;4.60;;;;;;;;;;5021973;28;20124;-70
2023/06/10 05:00:36;;;;;;;14.95;4.80;;;;;;;;;;5015413;28;20043;-70
2023/06/10 05:03:02;;;;;;;13.20;5.30;;;;;;;;;;5016035;28;20636;-70
2023/06/10 05:05:28;;;;;;;14.20;5.80;;;;;;;;;;5016690;28;20230;-70
2023/06/10 05:07:54;;;;;;;17.33;5.75;;;;;;;;;;5002957;28;20554;-69
2023/06/10 05:10:20;;;;;;;15.68;5.07;;;;;;;;;;5016831;28;20033;-70
2023/06/10 05:12:46;;;;;;;14.38;4.93;;;;;;;;;;5014830;28;20041;-71
2023/06/10 05:15:13;;;;;;;11.10;4.50;;;;;;;;;;5021112;28;20028;-70
2023/06/10 05:17:39;;;;;;;13.35;4.93;;;;;;;;;;5001352;28;20029;-70
2023/06/10 05:20:06;;;;;;;12.38;4.70;;;;;;;;;;5019909;28;20072;-71
2023/06/10 05:22:32;;;;;;;13.00;4.75;;;;;;;;;;5013269;28;20200;-70
2023/06/10 05:24:58;;;;;;;14.10;4.20;;;;;;;;;;5023021;28;20372;-70
2023/06/10 05:27:25;;;;;;;12.73;4.50;;;;;;;;;;4999250;28;20413;-70
2023/06/10 05:29:51;;;;;;;15.57;4.93;;;;;;;;;;5022795;28;20367;-70
2023/06/10 05:32:18;;;;;;;13.15;4.32;;;;;;;;;;5002691;28;20312;-70
2023/06/10 05:34:44;;;;;;;13.25;4.25;;;;;;;;;;4999505;28;20457;-69
2023/06/10 05:37:10;;;;;;;12.15;4.50;;;;;;;;;;5005539;28;20635;-70
2023/06/10 05:39:39;;;;;;;13.55;4.43;;;;;;;;;;5018643;28;20017;-70
2023/06/10 05:42:07;;;;;;;14.80;4.00;;;;;;;;;;5015929;28;20202;-70
2023/06/10 05:44:33;;;;;;;14.07;4.30;;;;;;;;;;5015098;28;20025;-70
2023/06/10 05:46:59;;;;;;;13.88;4.35;;;;;;;;;;4998940;28;20431;-70
2023/06/10 05:49:25;;;;;;;13.52;4.00;;;;;;;;;;5016454;28;20033;-69
2023/06/10 05:51:56;;;;;;;11.75;3.50;;;;;;;;;;5019422;28;20051;-69
2023/06/10 05:54:22;;;;;;;9.95;3.50;;;;;;;;;;4992710;28;20037;-69
2023/06/10 05:56:48;;;;;;;10.23;3.40;;;;;;;;;;5005838;28;20032;-70
2023/06/10 05:59:14;;;;;;;13.85;4.07;;;;;;;;;;5006647;28;20037;-71
2023/06/10 06:01:40;;;;;;;11.70;3.58;;;;;;;;;;5013819;28;20033;-71
2023/06/10 06:04:06;;;;;;;12.57;3.92;;;;;;;;;;5003329;28;20076;-70
2023/06/10 06:06:33;;;;;;;12.77;3.97;;;;;;;;;;5013813;28;20112;-68
2023/06/10 06:08:59;;;;;;;13.27;3.67;;;;;;;;;;5004346;28;20554;-70
2023/06/10 06:11:26;;;;;;;10.82;3.58;;;;;;;;;;5014645;28;20340;-70
2023/06/10 06:13:52;;;;;;;12.40;3.78;;;;;;;;;;5016657;28;20029;-68
2023/06/10 06:16:18;;;;;;;13.95;4.70;;;;;;;;;;5012890;28;20039;-70
2023/06/10 06:18:45;;;;;;;14.93;5.20;;;;;;;;;;5014287;28;20032;-70
2023/06/10 06:21:11;;;;;;;13.35;4.82;;;;;;;;;;5015674;28;20049;-70
2023/06/10 06:23:37;;;;;;;17.92;5.60;;;;;;;;;;5014157;28;20116;-70
2023/06/10 06:26:03;;;;;;;16.42;5.57;;;;;;;;;;5016371;28;20025;-70
2023/06/10 06:28:30;;;;;;;18.95;5.40;;;;;;;;;;4998717;28;20032;-70
2023/06/10 06:30:57;;;;;;;17.95;5.13;;;;;;;;;;5017248;28;20033;-70
2023/06/10 06:33:23;;;;;;;16.60;5.25;;;;;;;;;;4996812;28;20060;-70
2023/06/10 06:35:49;;;;;;;17.98;5.30;;;;;;;;;;5019800;28;20138;-69
2023/06/10 06:38:15;;;;;;;15.82;5.28;;;;;;;;;;5006032;28;20546;-70
2023/06/10 06:40:41;;;;;;;16.48;5.55;;;;;;;;;;5020794;28;20321;-69
2023/06/10 06:43:08;;;;;;;14.60;5.10;;;;;;;;;;5016401;28;20041;-69
2023/06/10 06:45:34;;;;;;;13.85;5.30;;;;;;;;;;5003629;28;20534;-69
2023/06/10 06:48:00;;;;;;;15.02;5.35;;;;;;;;;;5004593;28;20561;-69
2023/06/10 06:50:26;;;;;;;17.27;5.40;;;;;;;;;;5021103;28;20029;-71
2023/06/10 06:52:53;;;;;;;13.02;4.47;;;;;;;;;;5023635;28;20039;-68
2023/06/10 06:55:19;;;;;;;16.25;5.28;;;;;;;;;;5005706;28;20020;-68
2023/06/10 06:57:45;;;;;;;13.98;4.95;;;;;;;;;;5007788;28;20030;-70
2023/06/10 07:00:11;;;;;;;15.32;4.85;;;;;;;;;;5022520;28;20155;-71
2023/06/10 07:02:38;;;;;;;13.95;5.05;;;;;;;;;;5019760;28;20156;-70
2023/06/10 07:05:04;;;;;;;16.08;5.22;;;;;;;;;;5003590;28;20029;-70
2023/06/10 07:07:30;;;;;;;14.73;4.88;;;;;;;;;;5002953;28;20227;-68
2023/06/10 07:09:56;;;;;;;18.65;5.03;;;;;;;;;;5021757;28;20128;-68
2023/06/10 07:12:23;;;;;;;16.00;4.97;;;;;;;;;;5015848;28;20383;-68
2023/06/10 07:14:51;;;;;;;14.88;4.80;;;;;;;;;;5021378;28;20029;-70
2023/06/10 07:17:17;;;;;;;14.25;4.88;;;;;;;;;;5019901;28;20056;-70
2023/06/10 07:19:44;;;;;;;13.55;4.72;;;;;;;;;;5000342;28;20029;-70
2023/06/10 07:22:10;;;;;;;13.73;4.50;;;;;;;;;;5008066;28;20059;-70
2023/06/10 07:24:36;;;;;;;17.25;5.00;;;;;;;;;;4999954;28;20048;-70
2023/06/10 07:27:03;;;;;;;12.32;4.25;;;;;;;;;;5022142;28;20071;-70
2023/06/10 07:29:29;;;;;;;13.65;4.43;;;;;;;;;;5020010;28;20677;-70
2023/06/10 07:31:55;;;;;;;17.30;5.05;;;;;;;;;;5021955;28;20052;-70
2023/06/10 07:34:21;;;;;;;13.48;4.50;;;;;;;;;;5016657;28;20483;-70
2023/06/10 07:36:48;;;;;;;13.27;4.63;;;;;;;;;;5024103;28;20297;-70
2023/06/10 07:39:14;;;;;;;14.50;4.28;;;;;;;;;;5023206;28;20048;-70
2023/06/10 07:41:40;;;;;;;15.88;4.20;;;;;;;;;;5020565;28;20032;-70
2023/06/10 07:44:07;;;;;;;12.30;4.10;;;;;;;;;;5022663;28;20040;-69
2023/06/10 07:46:33;;;;;;;12.10;4.22;;;;;;;;;;5016621;28;20175;-70
2023/06/10 07:48:59;;;;;;;14.95;4.18;;;;;;;;;;5022736;28;20451;-70
2023/06/10 07:51:25;;;;;;;15.77;4.00;;;;;;;;;;5001587;28;20052;-70
2023/06/10 07:53:52;;;;;;;12.35;3.75;;;;;;;;;;5022666;28;20586;-70
2023/06/10 07:56:18;;;;;;;13.20;3.70;;;;;;;;;;5010348;28;20444;-70
2023/06/10 07:58:44;;;;;;;12.05;3.92;;;;;;;;;;5007878;28;20882;-70
2023/06/10 08:01:10;;;;;;;13.95;3.90;;;;;;;;;;5016294;28;20838;-70
2023/06/10 08:03:37;;;;;;;12.75;3.95;;;;;;;;;;5020503;28;20043;-70
2023/06/10 08:06:03;;;;;;;11.35;3.30;;;;;;;;;;5024686;28;20017;-70
2023/06/10 08:08:29;;;;;;;12.65;3.80;;;;;;;;;;5020158;28;20036;-70
2023/06/10 08:10:55;;;;;;;11.70;3.58;;;;;;;;;;5017053;28;20030;-70
2023/06/10 08:13:21;;;;;;;11.50;3.72;;;;;;;;;;5020452;28;20100;-70
2023/06/10 08:15:50;;;;;;;12.95;3.70;;;;;;;;;;5020092;28;20415;-70
2023/06/10 08:18:16;;;;;;;11.30;3.53;;;;;;;;;;5018791;28;20105;-70
2023/06/10 08:20:42;;;;;;;12.07;3.55;;;;;;;;;;5020016;28;20155;-69
2023/06/10 08:23:09;;;;;;;10.63;3.55;;;;;;;;;;5019354;28;20708;-72
2023/06/10 08:25:35;;;;;;;12.73;3.97;;;;;;;;;;5004510;28;20029;-73
2023/06/10 08:28:01;;;;;;;14.25;4.07;;;;;;;;;;5024305;28;20459;-73
2023/06/10 08:30:27;;;;;;;17.58;4.47;;;;;;;;;;5000381;28;20025;-74
2023/06/10 08:32:53;;;;;;;12.80;4.10;;;;;;;;;;5021468;28;20057;-72
2023/06/10 08:35:20;;;;;;;15.32;3.90;;;;;;;;;;5019061;28;20038;-73
2023/06/10 08:37:46;;;;;;;12.68;3.78;;;;;;;;;;5021500;28;20033;-73
2023/06/10 08:40:12;;;;;;;15.45;3.80;;;;;;;;;;5005296;28;20642;-73
2023/06/10 08:42:59;;;;;;;16.25;3.90;;;;;;;;;;5021189;28;21596;-74
2023/06/10 08:45:28;;;;;;;10.73;3.47;;;;;;;;;;5019702;28;20025;-73
2023/06/10 08:47:54;;;;;;;19.95;4.30;;;;;;;;;;5020737;28;20105;-73
2023/06/10 08:50:21;;;;;;;12.02;3.38;;;;;;;;;;5022088;28;20380;-72
2023/06/10 08:52:48;;;;;;;15.55;4.07;;;;;;;;;;5021511;28;20644;-73
2023/06/10 08:55:25;;;;;;;12.32;3.58;;;;;;;;;;5023939;28;20410;-73
2023/06/10 08:57:52;;;;;;;13.55;3.67;;;;;;;;;;5002853;28;20029;-73
2023/06/10 09:00:19;;;;;;;16.20;3.70;;;;;;;;;;5021442;28;20025;-73
2023/06/10 09:02:45;;;;;;;11.80;3.17;;;;;;;;;;5020104;28;20105;-73
2023/06/10 09:05:11;;;;;;;10.15;2.90;;;;;;;;;;5006559;28;20029;-73
2023/06/10 09:07:38;;;;;;;11.63;3.22;;;;;;;;;;5016167;28;20515;-72
2023/06/10 09:10:06;;;;;;;12.95;3.50;;;;;;;;;;5023446;28;20569;-74
2023/06/10 09:12:35;;;;;;;14.43;3.80;;;;;;;;;;5001803;28;20056;-75
2023/06/10 09:15:01;;;;;;;13.45;3.63;;;;;;;;;;5019779;28;20483;-74
2023/06/10 09:17:28;;;;;;;12.63;3.40;;;;;;;;;;5020379;28;20028;-74
2023/06/10 09:19:55;;;;;;;12.73;3.10;;;;;;;;;;5022655;28;20013;-74
2023/06/10 09:22:23;;;;;;;11.05;2.85;;;;;;;;;;5020626;28;20898;-73
2023/06/10 09:24:49;;;;;;;9.52;2.90;;;;;;;;;;5013401;28;20200;-73
2023/06/10 09:27:15;;;;;;;9.63;2.90;;;;;;;;;;5022521;28;20538;-73
2023/06/10 09:29:50;;;;;;;8.70;2.78;;;;;;;;;;5015768;28;20025;-72
2023/06/10 09:32:18;;;;;;;10.15;2.72;;;;;;;;;;5020727;28;20495;-75
2023/06/10 09:34:45;;;;;;;10.30;3.03;;;;;;;;;;5022311;28;20107;-73
2023/06/10 09:37:13;;;;;;;14.10;3.13;;;;;;;;;;5008416;28;20033;-72
2023/06/10 09:39:39;;;;;;;10.50;3.38;;;;;;;;;;5018912;28;20758;-72
2023/06/10 09:42:26;;;;;;;14.70;3.00;;;;;;;;;;5023294;28;20460;-72
2023/06/10 09:44:54;;;;;;;15.73;3.50;;;;;;;;;;5020040;28;20060;-73
2023/06/10 09:47:22;;;;;;;15.05;3.70;;;;;;;;;;5006797;28;20025;-72
2023/06/10 09:49:48;;;;;;;11.57;3.70;;;;;;;;;;5017956;28;20354;-72
2023/06/10 09:52:14;;;;;;;11.48;3.38;;;;;;;;;;5003996;28;20129;-73
2023/06/10 09:54:40;;;;;;;9.70;3.00;;;;;;;;;;5020172;28;20033;-72
2023/06/10 09:57:10;;;;;;;9.98;2.85;;;;;;;;;;5017919;28;20061;-72
2023/06/10 09:59:38;;;;;;;9.23;2.40;;;;;;;;;;5004554;28;20037;-72
2023/06/10 10:02:04;;;;;;;8.55;2.40;;;;;;;;;;5007037;28;20035;-72
2023/06/10 10:04:30;;;;;;;10.98;2.55;;;;;;;;;;5019523;28;20265;-73
2023/06/10 10:06:58;;;;;;;10.25;2.38;;;;;;;;;;5011698;28;20025;-72
2023/06/10 10:09:24;;;;;;;8.18;2.25;;;;;;;;;;5016521;28;20036;-73
2023/06/10 10:11:52;;;;;;;9.77;2.35;;;;;;;;;;5004328;28;20029;-72
2023/06/10 10:14:19;;;;;;;10.60;2.30;;;;;;;;;;5008909;28;20045;-72
2023/06/10 10:16:46;;;;;;;14.88;3.10;;;;;;;;;;5003873;28;20028;-72
2023/06/10 10:19:15;;;;;;;10.57;2.50;;;;;;;;;;5019544;28;20082;-72
2023/06/10 10:21:47;;;;;;;9.23;2.63;;;;;;;;;;5017227;28;20110;-72
2023/06/10 10:24:21;;;;;;;7.50;2.28;;;;;;;;;;5018754;28;20080;-72
2023/06/10 10:26:49;;;;;;;9.50;2.27;;;;;;;;;;5005356;28;20600;-72
2023/06/10 10:29:25;;;;;;;10.27;2.60;;;;;;;;;;5008537;28;20424;-71
2023/06/10 10:31:55;;;;;;;10.25;2.85;;;;;;;;;;5003974;28;20048;-71
2023/06/10 10:34:31;;;;;;;11.02;3.03;;;;;;;;;;5014407;28;20052;-70
2023/06/10 10:36:58;;;;;;;11.00;2.85;;;;;;;;;;5005488;28;20044;-69
2023/06/10 10:39:24;;;;;;;11.80;3.10;;;;;;;;;;5020629;28;20124;-67
2023/06/10 10:41:51;;;;;;;9.98;3.13;;;;;;;;;;5008847;28;20536;-73
2023/06/10 10:44:17;;;;;;;15.45;4.15;;;;;;;;;;5018343;28;20214;-73
2023/06/10 10:46:53;;;;;;;13.77;3.67;;;;;;;;;;5016860;28;20135;-73
2023/06/10 10:49:20;;;;;;;13.10;3.45;;;;;;;;;;5017164;28;20025;-73
2023/06/10 10:51:59;;;;;;;13.82;3.60;;;;;;;;;;5021336;28;20229;-73
2023/06/10 10:54:30;;;;;;;16.25;4.30;;;;;;;;;;5017804;28;20565;-73
2023/06/10 10:57:23;;;;;;;19.02;4.72;;;;;;;;;;5021438;28;20029;-73
2023/06/10 10:59:49;;;;;;;12.88;3.70;;;;;;;;;;5017381;28;20249;-71
2023/06/10 11:02:19;;;;;;;15.65;4.28;;;;;;;;;;5009964;28;20506;-74
2023/06/10 11:04:45;;;;;;;11.05;3.65;;;;;;;;;;5019110;28;20155;-73
2023/06/10 11:07:15;;;;;;;11.52;3.22;;;;;;;;;;5015185;28;20037;-73
2023/06/10 11:09:58;;;;;;;14.32;3.80;;;;;;;;;;5014814;28;20255;-73
2023/06/10 11:12:24;;;;;;;15.38;3.72;;;;;;;;;;5017969;28;20096;-72
2023/06/10 11:14:56;;;;;;;15.10;4.05;;;;;;;;;;5001114;28;20328;-71
2023/06/10 11:17:23;;;;;;;18.42;4.10;;;;;;;;;;4999684;28;20025;-73
2023/06/10 11:19:49;;;;;;;12.35;3.70;;;;;;;;;;5025743;28;20025;-74
2023/06/10 11:22:20;;;;;;;13.40;3.67;;;;;;;;;;5021835;28;20076;-71
2023/06/10 11:24:50;;;;;;;13.30;3.53;;;;;;;;;;5019374;28;20090;-72
2023/06/10 11:27:20;;;;;;;11.73;3.35;;;;;;;;;;5024488;28;20502;-73
2023/06/10 11:29:56;;;;;;;12.75;3.13;;;;;;;;;;5023281;28;21017;-73
2023/06/10 11:32:22;;;;;;;;;;;;;;;;;;5022881;28;20053;-71
2023/06/10 11:34:54;;;;;;;12.45;3.05;;;;;;;;;;5025890;28;20299;-73
2023/06/10 11:37:21;;;;;;;12.25;3.30;;;;;;;;;;5018598;28;20040;-72
2023/06/10 11:39:48;;;;;;;13.23;3.00;;;;;;;;;;5011817;28;20039;-71
2023/06/10 11:42:17;;;;;;;12.10;3.20;;;;;;;;;;5023456;28;20025;-71
2023/06/10 11:44:48;;;;;;;11.75;3.50;;;;;;;;;;5007734;28;20029;-71
2023/06/10 11:47:14;;;;;;;11.27;3.63;;;;;;;;;;5020555;28;20523;-71
2023/06/10 11:49:40;;;;;;;10.07;3.08;;;;;;;;;;5016367;28;20037;-71
2023/06/10 11:52:06;;;;;;;9.82;2.85;;;;;;;;;;5021668;28;20025;-71
2023/06/10 11:54:32;;;;;;;11.90;3.45;;;;;;;;;;5007876;28;20584;-71
2023/06/10 11:57:03;;;;;;;11.65;3.15;;;;;;;;;;5010709;28;20082;-71
2023/06/10 11:59:30;;;;;;;9.77;2.80;;;;;;;;;;5004336;28;20029;-72
2023/06/10 12:01:56;;;;;;;12.40;2.80;;;;;;;;;;5019700;28;20031;-71
2023/06/10 12:04:22;;;;;;;12.52;2.95;;;;;;;;;;5019070;28;20119;-72
2023/06/10 12:06:52;;;;;;;10.90;3.20;;;;;;;;;;5006099;28;20087;-72
2023/06/10 12:09:20;;;;;;;9.02;2.90;;;;;;;;;;5005654;28;20032;-72
2023/06/10 12:11:48;;;;;;;10.73;3.30;;;;;;;;;;5024562;28;20505;-72
2023/06/10 12:14:15;;;;;;;9.73;3.17;;;;;;;;;;5024532;28;20333;-72
2023/06/10 12:16:41;;;;;;;12.95;3.17;;;;;;;;;;5014479;28;20024;-72
2023/06/10 12:19:07;;;;;;;10.10;3.05;;;;;;;;;;5018068;28;20534;-72
2023/06/10 12:21:35;;;;;;;10.52;3.10;;;;;;;;;;5016971;28;20033;-72
2023/06/10 12:24:06;;;;;;;10.00;2.90;;;;;;;;;;5005772;28;20032;-72
2023/06/10 12:26:40;;;;;;;9.35;2.83;;;;;;;;;;5020207;28;20452;-72
2023/06/10 12:29:15;;;;;;;10.32;3.42;;;;;;;;;;5008033;28;20024;-72
2023/06/10 12:32:08;;;;;;;10.30;2.65;;;;;;;;;;5019965;28;20110;-73
2023/06/10 12:34:37;;;;;;;11.55;3.03;;;;;;;;;;5016476;28;20126;-71
2023/06/10 12:37:05;;;;;;;8.05;2.47;;;;;;;;;;5022937;28;20033;-72
2023/06/10 12:39:32;;;;;;;10.15;3.10;;;;;;;;;;5021935;28;20048;-72
2023/06/10 12:41:58;;;;;;;8.88;2.70;;;;;;;;;;5022656;28;20106;-72
2023/06/10 12:44:31;;;;;;;10.48;2.70;;;;;;;;;;5019761;28;20570;-72
2023/06/10 12:46:57;;;;;;;9.35;2.60;;;;;;;;;;5022801;28;20125;-72
2023/06/10 12:49:23;;;;;;;11.98;3.25;;;;;;;;;;5019561;28;20032;-72
2023/06/10 12:51:50;;;;;;;9.13;2.78;;;;;;;;;;5021378;28;20100;-72
2023/06/10 12:54:16;;;;;;;9.45;2.60;;;;;;;;;;5009250;28;20126;-71
2023/06/10 12:56:42;;;;;;;11.48;2.97;;;;;;;;;;5022332;28;20025;-71
2023/06/10 12:59:08;;;;;;;13.90;2.80;;;;;;;;;;5023066;28;20345;-73
2023/06/10 13:01:34;;;;;;;8.65;2.58;;;;;;;;;;5020031;28;20032;-71
2023/06/10 13:04:00;;;;;;;11.00;2.60;;;;;;;;;;5005506;28;20414;-72
2023/06/10 13:06:27;;;;;;;9.65;2.60;;;;;;;;;;5011718;28;20025;-71
2023/06/10 13:08:53;;;;;;;8.25;2.47;;;;;;;;;;5005242;28;20540;-72
2023/06/10 13:11:19;;;;;;;9.05;2.65;;;;;;;;;;5020644;28;20771;-72
2023/06/10 13:13:46;;;;;;;8.18;2.40;;;;;;;;;;5021337;28;20110;-73
2023/06/10 13:16:12;;;;;;;10.40;2.78;;;;;;;;;;5021548;28;20029;-72
2023/06/10 13:18:39;;;;;;;10.90;2.63;;;;;;;;;;5019534;28;21670;-71
2023/06/10 13:21:05;;;;;;;10.27;2.47;;;;;;;;;;5004893;28;20416;-71
2023/06/10 13:23:31;;;;;;;8.75;2.38;;;;;;;;;;5002915;28;20037;-71
2023/06/10 13:25:57;;;;;;;9.88;2.10;;;;;;;;;;5005241;28;20100;-72
2023/06/10 13:28:24;;;;;;;7.80;2.40;;;;;;;;;;5010530;28;20429;-71
2023/06/10 13:30:50;;;;;;;9.57;2.03;;;;;;;;;;4981625;28;20592;-72
2023/06/10 13:33:16;;;;;;;8.25;2.10;;;;;;;;;;5013275;28;20180;-74
2023/06/10 13:35:43;;;;;;;7.40;1.98;;;;;;;;;;5001636;28;20033;-73
2023/06/10 13:38:09;;;;;;;10.88;2.80;;;;;;;;;;5005568;28;20629;-74
2023/06/10 13:40:35;;;;;;;8.15;2.67;;;;;;;;;;5019021;28;20101;-73
2023/06/10 13:43:02;;;;;;;9.02;2.40;;;;;;;;;;5023078;28;20499;-74
2023/06/10 13:45:28;;;;;;;10.80;2.60;;;;;;;;;;5018195;28;20503;-74
2023/06/10 13:47:54;;;;;;;9.05;2.80;;;;;;;;;;5021857;28;20033;-73
2023/06/10 13:50:20;;;;;;;11.70;2.70;;;;;;;;;;5016971;28;20052;-72
2023/06/10 13:52:47;;;;;;;9.30;3.05;;;;;;;;;;5021505;28;20037;-72
2023/06/10 13:55:13;;;;;;;10.38;2.90;;;;;;;;;;5021678;28;20042;-72
2023/06/10 13:57:39;;;;;;;9.23;3.00;;;;;;;;;;5018899;28;20722;-73
2023/06/10 14:00:05;;;;;;;8.75;2.83;;;;;;;;;;5005712;28;20553;-72
2023/06/10 14:02:32;;;;;;;10.63;2.67;;;;;;;;;;5001189;28;20036;-72
2023/06/10 14:04:58;;;;;;;8.55;2.70;;;;;;;;;;5019676;28;20787;-72
2023/06/10 14:07:25;;;;;;;10.48;2.65;;;;;;;;;;5017750;28;20024;-72
2023/06/10 14:09:52;;;;;;;13.70;2.97;;;;;;;;;;5002384;28;20083;-72
2023/06/10 14:12:18;;;;;;;10.27;2.80;;;;;;;;;;5020659;28;20534;-72
2023/06/10 14:14:44;;;;;;;10.20;2.65;;;;;;;;;;5020129;28;20520;-72
2023/06/10 14:17:10;;;;;;;10.32;2.78;;;;;;;;;;5018256;28;20173;-73
2023/06/10 14:19:36;;;;;;;9.65;2.60;;;;;;;;;;5000331;28;20028;-72
2023/06/10 14:22:02;;;;;;;12.45;2.90;;;;;;;;;;5021859;28;20494;-72
2023/06/10 14:24:29;;;;;;;9.90;2.85;;;;;;;;;;5017445;28;20933;-73
2023/06/10 14:26:56;;;;;;;11.07;3.28;;;;;;;;;;5021750;28;20116;-72
2023/06/10 14:29:23;;;;;;;11.35;2.88;;;;;;;;;;5016535;28;20024;-72
2023/06/10 14:31:49;;;;;;;9.52;2.80;;;;;;;;;;5019294;28;20052;-73